createdAt,value
2023-03-21T00:02:48.503Z,101087.44
2023-03-21T00:07:45.301Z,101101.66
2023-03-21T00:12:43.698Z,101093.56
2023-03-21T00:17:40.276Z,101093.19
2023-03-21T00:22:39.796Z,101107.66
2023-03-21T00:28:05.310Z,101104.88
2023-03-21T00:32:56.670Z,101097.66
2023-03-21T00:37:54.376Z,101089.56
2023-03-21T00:42:52.011Z,101086.06
2023-03-21T00:47:48.974Z,101085.63
2023-03-21T00:52:46.098Z,101079.00
2023-03-21T00:57:47.559Z,101057.53
2023-03-21T01:03:02.594Z,101058.53
2023-03-21T01:08:07.916Z,101047.06
2023-03-21T01:13:11.961Z,101029.19
2023-03-21T01:18:08.667Z,101034.66
2023-03-21T01:23:05.586Z,101025.53
2023-03-21T01:28:02.310Z,101024.91
2023-03-21T01:32:59.818Z,101014.22
2023-03-21T01:37:56.787Z,101005.72
2023-03-21T01:42:53.740Z,101011.19
2023-03-21T01:47:51.820Z,100998.28
2023-03-21T01:52:55.843Z,100998.66
2023-03-21T01:58:06.643Z,101005.53
2023-03-21T02:03:29.529Z,100991.91
2023-03-21T02:08:39.901Z,100974.97
2023-03-21T02:13:41.947Z,100966.78
2023-03-21T02:18:47.318Z,100976.19
2023-03-21T02:23:57.618Z,100971.44
2023-03-21T02:28:57.803Z,100978.41
2023-03-21T02:34:13.426Z,100976.88
2023-03-21T02:39:14.601Z,100996.59
2023-03-21T02:44:17.355Z,101009.66
2023-03-21T02:49:16.875Z,101015.94
2023-03-21T02:54:30.363Z,101024.22
2023-03-21T02:59:35.780Z,100991.56
2023-03-21T03:04:37.910Z,101024.34
2023-03-21T03:09:39.658Z,101029.25
2023-03-21T03:14:56.441Z,101033.78
2023-03-21T03:20:15.615Z,101026.97
2023-03-21T03:25:27.206Z,101011.97
2023-03-21T03:30:42.242Z,101010.72
2023-03-21T03:35:48.305Z,101016.72
2023-03-21T03:40:54.660Z,101028.09
2023-03-21T03:46:13.524Z,101018.25
2023-03-21T03:51:16.877Z,101017.03
2023-03-21T03:56:32.760Z,101019.25
2023-03-21T04:01:29.954Z,101024.00
2023-03-21T04:06:28.592Z,101030.44
2023-03-21T04:11:25.468Z,101046.69
2023-03-21T04:16:25.679Z,101043.50
2023-03-21T04:21:22.758Z,101039.59
2023-03-21T04:26:20.649Z,101044.50
2023-03-21T04:31:40.948Z,101039.41
2023-03-21T04:36:44.022Z,101038.25
2023-03-21T04:41:42.117Z,101034.72
2023-03-21T04:46:40.498Z,101054.78
2023-03-21T04:51:38.922Z,101065.38
2023-03-21T04:56:40.452Z,101063.94
2023-03-21T05:01:37.149Z,101056.91
2023-03-21T05:06:34.597Z,101059.53
2023-03-21T05:11:31.674Z,101063.47
2023-03-21T05:16:30.744Z,101061.75
2023-03-21T05:21:29.186Z,101035.91
2023-03-21T05:26:29.056Z,101064.69
2023-03-21T05:31:39.970Z,101052.97
2023-03-21T05:36:40.594Z,101054.91
2023-03-21T05:41:40.726Z,101053.13
2023-03-21T05:46:38.686Z,101039.56
2023-03-21T05:51:36.221Z,101041.44
2023-03-21T05:56:33.253Z,101014.66
2023-03-21T06:01:35.076Z,101040.56
2023-03-21T06:06:43.040Z,101041.19
2023-03-21T06:11:43.162Z,101048.00
2023-03-21T06:16:58.587Z,101036.84
2023-03-21T06:21:55.438Z,101056.00
2023-03-21T06:26:52.209Z,101061.97
2023-03-21T06:32:11.029Z,101061.25
2023-03-21T06:37:08.916Z,101076.34
2023-03-21T06:42:14.097Z,101078.84
2023-03-21T06:47:11.711Z,101094.72
2023-03-21T06:52:14.461Z,101085.50
2023-03-21T06:57:13.005Z,101092.28
2023-03-21T07:02:10.479Z,101082.59
2023-03-21T07:07:17.301Z,101082.97
2023-03-21T07:12:26.943Z,101076.69
2023-03-21T07:44:55.448Z,101037.19
2023-03-21T09:10:19.033Z,101045.97
2023-03-21T09:15:16.434Z,101045.84
2023-03-21T09:20:18.205Z,101039.25
2023-03-21T09:25:20.898Z,101031.28
2023-03-21T09:31:04.946Z,101045.28
2023-03-21T09:36:09.598Z,101039.38
2023-03-21T09:41:16.907Z,101032.78
2023-03-21T09:46:17.907Z,101030.94
2023-03-21T09:51:18.288Z,101042.44
2023-03-21T09:56:20.874Z,101046.63
2023-03-21T10:01:27.815Z,101035.31
2023-03-21T10:06:39.533Z,101055.16
2023-03-21T10:11:42.018Z,101057.13
2023-03-21T10:16:42.569Z,101059.94
2023-03-21T10:22:03.742Z,101047.59
2023-03-21T10:27:04.485Z,101046.00
2023-03-21T10:32:07.173Z,101041.78
2023-03-21T10:37:06.173Z,101027.88
2023-03-21T10:42:09.618Z,101033.66
2023-03-21T10:47:17.171Z,101024.94
2023-03-21T10:52:18.656Z,101018.59
2023-03-21T10:57:22.248Z,101022.53
2023-03-21T11:02:21.606Z,101005.50
2023-03-21T11:07:30.708Z,101016.31
2023-03-21T11:12:36.808Z,101003.09
2023-03-21T11:17:38.024Z,100991.69
2023-03-21T11:22:39.934Z,100999.63
2023-03-21T11:27:47.878Z,100996.94
2023-03-21T11:32:58.636Z,100985.53
2023-03-21T11:38:01.460Z,100982.78
2023-03-21T11:43:03.944Z,100984.44
2023-03-21T11:48:04.892Z,100979.25
2023-03-21T11:53:12.741Z,100956.69
2023-03-21T11:58:27.243Z,100970.22
2023-03-21T12:03:47.985Z,100969.19
2023-03-21T12:08:51.042Z,100959.81
2023-03-21T12:13:56.659Z,100953.44
2023-03-21T12:19:16.580Z,100951.00
2023-03-21T12:24:19.987Z,100943.38
2023-03-21T12:29:31.740Z,100928.41
2023-03-21T12:34:49.445Z,100899.41
2023-03-21T12:39:53.910Z,100881.63
2023-03-21T12:44:55.950Z,100874.06
2023-03-21T12:50:01.249Z,100871.91
2023-03-21T12:55:18.650Z,100872.50
2023-03-21T13:00:22.663Z,100869.84
2023-03-21T13:05:28.460Z,100867.00
2023-03-21T13:10:25.992Z,100860.53
2023-03-21T13:15:43.138Z,100854.31
2023-03-21T13:20:48.724Z,100858.78
2023-03-21T13:25:47.640Z,100866.41
2023-03-21T13:30:50.621Z,100872.84
2023-03-21T13:36:00.541Z,100864.44
2023-03-21T13:41:04.318Z,100851.19
2023-03-21T13:46:08.120Z,100851.78
2023-03-21T13:51:06.430Z,100848.84
2023-03-21T13:56:22.963Z,100847.78
2023-03-21T14:01:36.059Z,100841.69
2023-03-21T14:06:44.287Z,100840.03
2023-03-21T14:11:46.471Z,100834.53
2023-03-21T14:16:46.081Z,100826.84
2023-03-21T14:21:53.084Z,100829.41
2023-03-21T14:27:00.852Z,100820.03
2023-03-21T14:32:04.033Z,100808.03
2023-03-21T14:37:01.349Z,100801.13
2023-03-21T14:42:05.062Z,100806.94
2023-03-21T14:47:07.955Z,100789.84
2023-03-21T14:52:09.878Z,100782.72
2023-03-21T14:57:10.960Z,100785.63
2023-03-21T15:02:20.365Z,100779.31
2023-03-21T15:07:29.526Z,100769.25
2023-03-21T15:12:26.762Z,100765.25
2023-03-21T15:17:30.814Z,100735.22
2023-03-21T15:22:37.035Z,100747.28
2023-03-21T15:27:38.092Z,100755.69
2023-03-21T15:32:38.299Z,100766.25
2023-03-21T15:37:39.440Z,100767.22
2023-03-21T15:42:45.503Z,100760.97
2023-03-21T15:47:57.708Z,100779.34
2023-03-21T15:53:05.065Z,100792.44
2023-03-21T15:58:07.451Z,100798.31
2023-03-21T16:03:11.050Z,100798.03
2023-03-21T16:08:21.345Z,100797.28
2023-03-21T16:13:20.156Z,100800.63
2023-03-21T16:18:17.703Z,100797.06
2023-03-21T16:23:19.735Z,100794.44
2023-03-21T16:28:22.494Z,100806.22
2023-03-21T16:33:21.428Z,100823.84
2023-03-21T16:38:22.081Z,100828.50
2023-03-21T16:43:19.061Z,100814.59
2023-03-21T16:48:17.121Z,100818.00
2023-03-21T16:53:17.461Z,100823.53
2023-03-21T16:58:16.664Z,100832.22
2023-03-21T17:03:14.810Z,100834.88
2023-03-21T17:08:16.022Z,100838.66
2023-03-21T17:13:13.567Z,100846.94
2023-03-21T17:18:11.082Z,100840.53
2023-03-21T17:23:18.289Z,100844.38
2023-03-21T17:28:17.466Z,100843.16
2023-03-21T17:33:29.051Z,100847.59
2023-03-21T17:38:34.289Z,100849.47
2023-03-21T17:43:32.150Z,100848.19
2023-03-21T17:48:30.502Z,100853.13
2023-03-21T17:53:27.650Z,100859.50
2023-03-21T17:58:27.903Z,100863.16
2023-03-21T18:03:28.629Z,100854.06
2023-03-21T18:08:32.099Z,100856.25
2023-03-21T18:13:29.058Z,100855.25
2023-03-21T18:18:27.497Z,100854.94
2023-03-21T18:23:26.883Z,100856.16
2023-03-21T18:28:26.705Z,100842.50
2023-03-21T18:33:23.685Z,100851.72
2023-03-21T18:38:24.330Z,100848.22
2023-03-21T18:48:49.210Z,100854.94
2023-03-21T18:53:47.872Z,100844.78
2023-03-21T18:58:46.336Z,100840.16
2023-03-21T19:04:14.426Z,100846.16
2023-03-21T19:09:07.980Z,100850.44
2023-03-21T19:14:06.233Z,100851.81
2023-03-21T19:19:03.209Z,100854.97
2023-03-21T19:24:25.059Z,100848.84
2023-03-21T19:29:21.256Z,100842.66
2023-03-21T19:34:18.549Z,100850.19
2023-03-21T19:39:22.793Z,100826.56
2023-03-21T19:44:21.770Z,100850.78
2023-03-21T19:49:23.859Z,100851.75
2023-03-21T19:54:29.642Z,100854.00
2023-03-21T19:59:28.641Z,100853.22
2023-03-21T20:04:28.013Z,100854.81
2023-03-21T20:09:50.513Z,100859.00
2023-03-21T20:14:47.311Z,100863.97
2023-03-21T20:19:44.183Z,100859.69
2023-03-21T20:24:45.357Z,100868.47
2023-03-21T20:35:17.368Z,100861.56
2023-03-21T20:40:19.250Z,100867.91
2023-03-21T20:45:22.206Z,100866.81
2023-03-21T20:50:22.113Z,100866.97
2023-03-21T20:55:20.902Z,100857.69
2023-03-21T21:00:21.475Z,100866.41
2023-03-21T21:05:27.842Z,100870.00
2023-03-21T21:10:26.121Z,100877.38
2023-03-21T21:15:27.413Z,100880.72
2023-03-21T21:20:25.331Z,100895.00
2023-03-21T21:25:24.611Z,100901.59
2023-03-21T21:30:24.352Z,100908.38
2023-03-21T21:35:26.301Z,100907.03
2023-03-21T21:40:23.716Z,100913.41
2023-03-21T21:45:20.575Z,100918.13
2023-03-21T21:50:24.584Z,100922.44
2023-03-21T21:55:24.521Z,100927.16
2023-03-21T22:00:21.466Z,100929.44
2023-03-21T22:05:18.551Z,100932.53
2023-03-21T22:10:15.421Z,100934.00
2023-03-21T22:15:13.227Z,100929.78
2023-03-21T22:20:11.538Z,100927.66
2023-03-21T22:25:12.502Z,100928.53
2023-03-21T22:30:13.191Z,100928.94
2023-03-21T22:35:11.021Z,100929.84
2023-03-21T22:40:09.469Z,100926.88
2023-03-21T22:45:07.143Z,100930.38
2023-03-21T22:50:04.289Z,100920.56
2023-03-21T22:55:02.725Z,100917.91
2023-03-21T23:00:02.988Z,100925.97
2023-03-21T23:05:02.369Z,100920.25
2023-03-21T23:09:59.170Z,100922.84
2023-03-21T23:14:59.858Z,100928.56
2023-03-21T23:20:00.258Z,100925.28
2023-03-21T23:24:57.431Z,100924.78
2023-03-21T23:29:58.908Z,100917.91
2023-03-21T23:34:56.440Z,100916.28
2023-03-21T23:39:54.675Z,100908.38
2023-03-21T23:44:51.595Z,100916.63
2023-03-21T23:49:49.611Z,100901.97
2023-03-21T23:54:54.334Z,100900.50
2023-03-21T23:59:53.959Z,100894.50
